Main page
METAR-TAF:

METAR-TAF

Airports :

Muscat International Airport

Muscat, Oman

latitude: 23-35N, longitude: 058-17E, elevation: 8 m

Current weather observation

The report was made 55 minutes ago, at 18:50 UTC
Wind 3 kt from the South/Southwest
Temperature 18°C
Humidity 59%
Pressure 1020 hPa
Visibility 10 km or more
no clouds below 1500 m and no cumulonimbus

METAR: OOMS 171850Z 21003KT CAVOK 18/10 Q1020 NOSIG

Time: 23:45 (19:45 UTC)

Forecast

The report was made 2 hours and 45 minutes ago, at 17:00 UTC
Forecast valid from 17 at 18 UTC to 18 at 24 UTC
Wind 8 kt from the Southwest
Visibility: 8000 m
Becoming
from 18 at 06 UTC to 18 at 08 UTC
Wind 10 kt from the North/Northeast
Becoming
from 18 at 16 UTC to 18 at 18 UTC
Wind 8 kt from the South/Southwest

TAF: OOMS 171700Z 1718/1824 22008KT 8000 NSC BECMG 1806/1808 03010KT BECMG 1816/1818 21008KT

Weather observations and forecasts of more than 4000 airports (METAR and TAF reports).

The available stations are represented by yellow and red dots on the map.

Hover mouse over dot to see the name of the station.

Then click to see weather observations and forecasts.

To change the map : click on the green buttons with a black cross to zoom in, on the green button with a dash to zoom out, or on the green arrows for adjacent maps.


METAR-TAF: